sensor_id;sensor_type;location;lat;lon;timestamp;P1;durP1;ratioP1;P2;durP2;ratioP2
35444;SDS011;21562;49.476;6.086;2022-08-18T00:02:25;4.63;;;3.83;;
35444;SDS011;21562;49.476;6.086;2022-08-18T00:04:53;5.50;;;4.60;;
35444;SDS011;21562;49.476;6.086;2022-08-18T00:07:28;5.35;;;4.78;;
35444;SDS011;21562;49.476;6.086;2022-08-18T00:09:56;5.47;;;4.82;;
35444;SDS011;21562;49.476;6.086;2022-08-18T00:12:35;6.88;;;4.50;;
35444;SDS011;21562;49.476;6.086;2022-08-18T00:15:04;5.18;;;4.47;;
35444;SDS011;21562;49.476;6.086;2022-08-18T00:17:32;5.05;;;4.47;;
35444;SDS011;21562;49.476;6.086;2022-08-18T00:19:58;4.50;;;4.10;;
35444;SDS011;21562;49.476;6.086;2022-08-18T00:22:24;5.95;;;4.38;;
35444;SDS011;21562;49.476;6.086;2022-08-18T00:24:52;5.30;;;4.20;;
35444;SDS011;21562;49.476;6.086;2022-08-18T00:27:21;5.97;;;4.80;;
35444;SDS011;21562;49.476;6.086;2022-08-18T00:29:48;4.95;;;4.20;;
35444;SDS011;21562;49.476;6.086;2022-08-18T00:32:15;4.50;;;4.05;;
35444;SDS011;21562;49.476;6.086;2022-08-18T00:34:43;4.47;;;4.03;;
35444;SDS011;21562;49.476;6.086;2022-08-18T00:37:09;5.88;;;4.93;;
35444;SDS011;21562;49.476;6.086;2022-08-18T00:39:34;5.32;;;4.28;;
35444;SDS011;21562;49.476;6.086;2022-08-18T00:42:17;11.18;;;5.72;;
35444;SDS011;21562;49.476;6.086;2022-08-18T00:44:48;4.88;;;4.38;;
35444;SDS011;21562;49.476;6.086;2022-08-18T00:47:14;6.15;;;4.07;;
35444;SDS011;21562;49.476;6.086;2022-08-18T00:49:40;4.78;;;4.05;;
35444;SDS011;21562;49.476;6.086;2022-08-18T00:52:09;5.40;;;4.18;;
35444;SDS011;21562;49.476;6.086;2022-08-18T00:54:37;5.72;;;4.10;;
35444;SDS011;21562;49.476;6.086;2022-08-18T00:57:06;7.80;;;4.28;;
35444;SDS011;21562;49.476;6.086;2022-08-18T00:59:43;5.45;;;4.47;;
35444;SDS011;21562;49.476;6.086;2022-08-18T01:02:23;5.43;;;4.88;;
35444;SDS011;21562;49.476;6.086;2022-08-18T01:05:02;7.05;;;4.50;;
35444;SDS011;21562;49.476;6.086;2022-08-18T01:07:37;4.35;;;3.90;;
35444;SDS011;21562;49.476;6.086;2022-08-18T01:10:12;4.80;;;4.30;;
35444;SDS011;21562;49.476;6.086;2022-08-18T01:12:44;7.35;;;4.88;;
35444;SDS011;21562;49.476;6.086;2022-08-18T01:15:10;4.70;;;4.20;;
35444;SDS011;21562;49.476;6.086;2022-08-18T01:17:38;5.88;;;4.38;;
35444;SDS011;21562;49.476;6.086;2022-08-18T01:20:27;5.55;;;4.82;;
35444;SDS011;21562;49.476;6.086;2022-08-18T01:23:17;5.10;;;4.57;;
35444;SDS011;21562;49.476;6.086;2022-08-18T01:25:45;5.32;;;4.47;;
35444;SDS011;21562;49.476;6.086;2022-08-18T01:28:35;6.07;;;5.13;;
35444;SDS011;21562;49.476;6.086;2022-08-18T01:31:03;6.53;;;4.85;;
35444;SDS011;21562;49.476;6.086;2022-08-18T01:33:34;6.20;;;4.55;;
35444;SDS011;21562;49.476;6.086;2022-08-18T01:36:21;5.85;;;4.45;;
35444;SDS011;21562;49.476;6.086;2022-08-18T01:41:15;4.78;;;4.28;;
35444;SDS011;21562;49.476;6.086;2022-08-18T01:43:43;5.88;;;4.68;;
35444;SDS011;21562;49.476;6.086;2022-08-18T01:46:10;4.80;;;4.30;;
35444;SDS011;21562;49.476;6.086;2022-08-18T01:48:36;5.43;;;4.75;;
35444;SDS011;21562;49.476;6.086;2022-08-18T01:51:03;5.93;;;4.78;;
35444;SDS011;21562;49.476;6.086;2022-08-18T01:53:33;5.18;;;4.68;;
35444;SDS011;21562;49.476;6.086;2022-08-18T01:56:00;4.97;;;4.47;;
35444;SDS011;21562;49.476;6.086;2022-08-18T01:58:29;8.48;;;4.90;;
35444;SDS011;21562;49.476;6.086;2022-08-18T02:00:56;5.88;;;4.45;;
35444;SDS011;21562;49.476;6.086;2022-08-18T02:03:27;6.15;;;4.85;;
35444;SDS011;21562;49.476;6.086;2022-08-18T02:05:57;5.25;;;4.65;;
35444;SDS011;21562;49.476;6.086;2022-08-18T02:08:26;6.60;;;4.50;;
35444;SDS011;21562;49.476;6.086;2022-08-18T02:10:52;4.78;;;4.28;;
35444;SDS011;21562;49.476;6.086;2022-08-18T02:13:18;5.00;;;4.13;;
35444;SDS011;21562;49.476;6.086;2022-08-18T02:15:44;4.88;;;4.03;;
35444;SDS011;21562;49.476;6.086;2022-08-18T02:18:14;5.40;;;4.45;;
35444;SDS011;21562;49.476;6.086;2022-08-18T02:20:41;4.57;;;4.18;;
35444;SDS011;21562;49.476;6.086;2022-08-18T02:23:08;5.20;;;4.25;;
35444;SDS011;21562;49.476;6.086;2022-08-18T02:25:34;6.18;;;4.70;;
35444;SDS011;21562;49.476;6.086;2022-08-18T02:28:00;8.82;;;4.78;;
35444;SDS011;21562;49.476;6.086;2022-08-18T02:30:25;6.60;;;4.32;;
35444;SDS011;21562;49.476;6.086;2022-08-18T02:32:51;5.82;;;4.53;;
35444;SDS011;21562;49.476;6.086;2022-08-18T02:35:17;5.32;;;4.60;;
35444;SDS011;21562;49.476;6.086;2022-08-18T02:37:42;5.72;;;4.03;;
35444;SDS011;21562;49.476;6.086;2022-08-18T02:40:11;5.97;;;4.85;;
35444;SDS011;21562;49.476;6.086;2022-08-18T02:42:38;5.18;;;4.68;;
35444;SDS011;21562;49.476;6.086;2022-08-18T02:45:04;6.32;;;5.00;;
35444;SDS011;21562;49.476;6.086;2022-08-18T02:47:30;5.68;;;4.55;;
35444;SDS011;21562;49.476;6.086;2022-08-18T02:49:56;6.07;;;4.25;;
35444;SDS011;21562;49.476;6.086;2022-08-18T02:52:21;5.32;;;4.43;;
35444;SDS011;21562;49.476;6.086;2022-08-18T02:54:49;5.38;;;4.60;;
35444;SDS011;21562;49.476;6.086;2022-08-18T02:57:16;5.35;;;4.38;;
35444;SDS011;21562;49.476;6.086;2022-08-18T02:59:41;4.90;;;3.88;;
35444;SDS011;21562;49.476;6.086;2022-08-18T03:02:07;4.68;;;4.10;;
35444;SDS011;21562;49.476;6.086;2022-08-18T03:04:34;6.00;;;5.32;;
35444;SDS011;21562;49.476;6.086;2022-08-18T03:07:01;5.22;;;4.63;;
35444;SDS011;21562;49.476;6.086;2022-08-18T03:09:29;5.15;;;4.20;;
35444;SDS011;21562;49.476;6.086;2022-08-18T03:11:55;6.88;;;4.47;;
35444;SDS011;21562;49.476;6.086;2022-08-18T03:14:22;5.30;;;4.80;;
35444;SDS011;21562;49.476;6.086;2022-08-18T03:16:48;5.15;;;4.65;;
35444;SDS011;21562;49.476;6.086;2022-08-18T03:19:14;5.13;;;4.63;;
35444;SDS011;21562;49.476;6.086;2022-08-18T03:21:40;4.95;;;4.40;;
35444;SDS011;21562;49.476;6.086;2022-08-18T03:24:08;6.70;;;4.28;;
35444;SDS011;21562;49.476;6.086;2022-08-18T03:26:33;6.25;;;4.78;;
35444;SDS011;21562;49.476;6.086;2022-08-18T03:29:00;6.45;;;4.85;;
35444;SDS011;21562;49.476;6.086;2022-08-18T03:31:27;4.85;;;4.45;;
35444;SDS011;21562;49.476;6.086;2022-08-18T03:33:55;7.35;;;5.10;;
35444;SDS011;21562;49.476;6.086;2022-08-18T03:36:24;6.07;;;5.03;;
35444;SDS011;21562;49.476;6.086;2022-08-18T03:38:53;7.10;;;4.65;;
35444;SDS011;21562;49.476;6.086;2022-08-18T03:41:20;5.20;;;4.43;;
35444;SDS011;21562;49.476;6.086;2022-08-18T03:43:48;4.50;;;4.10;;
35444;SDS011;21562;49.476;6.086;2022-08-18T03:46:14;4.88;;;4.40;;
35444;SDS011;21562;49.476;6.086;2022-08-18T03:48:42;5.88;;;4.75;;
35444;SDS011;21562;49.476;6.086;2022-08-18T03:51:12;5.35;;;4.85;;
35444;SDS011;21562;49.476;6.086;2022-08-18T03:53:39;6.03;;;5.30;;
35444;SDS011;21562;49.476;6.086;2022-08-18T03:56:08;5.82;;;5.22;;
35444;SDS011;21562;49.476;6.086;2022-08-18T03:58:40;5.50;;;4.78;;
35444;SDS011;21562;49.476;6.086;2022-08-18T04:01:15;5.25;;;4.75;;
35444;SDS011;21562;49.476;6.086;2022-08-18T04:03:44;6.07;;;5.13;;
35444;SDS011;21562;49.476;6.086;2022-08-18T04:06:21;5.72;;;4.93;;
35444;SDS011;21562;49.476;6.086;2022-08-18T04:08:50;7.85;;;5.80;;
35444;SDS011;21562;49.476;6.086;2022-08-18T04:11:17;5.68;;;5.07;;
35444;SDS011;21562;49.476;6.086;2022-08-18T04:13:42;5.75;;;5.10;;
35444;SDS011;21562;49.476;6.086;2022-08-18T04:16:08;5.90;;;5.28;;
35444;SDS011;21562;49.476;6.086;2022-08-18T04:18:34;6.68;;;6.07;;
35444;SDS011;21562;49.476;6.086;2022-08-18T04:21:04;6.43;;;5.30;;
35444;SDS011;21562;49.476;6.086;2022-08-18T04:23:35;8.60;;;5.53;;
35444;SDS011;21562;49.476;6.086;2022-08-18T04:26:02;6.18;;;5.57;;
35444;SDS011;21562;49.476;6.086;2022-08-18T04:28:30;5.80;;;5.18;;
35444;SDS011;21562;49.476;6.086;2022-08-18T04:30:55;6.28;;;5.57;;
35444;SDS011;21562;49.476;6.086;2022-08-18T04:33:26;9.27;;;6.10;;
35444;SDS011;21562;49.476;6.086;2022-08-18T04:35:53;7.35;;;5.80;;
35444;SDS011;21562;49.476;6.086;2022-08-18T04:38:20;9.60;;;6.00;;
35444;SDS011;21562;49.476;6.086;2022-08-18T04:40:47;5.88;;;5.22;;
35444;SDS011;21562;49.476;6.086;2022-08-18T04:43:13;6.15;;;5.55;;
35444;SDS011;21562;49.476;6.086;2022-08-18T04:45:40;7.88;;;6.55;;
35444;SDS011;21562;49.476;6.086;2022-08-18T04:48:08;8.20;;;6.40;;
35444;SDS011;21562;49.476;6.086;2022-08-18T04:50:35;9.55;;;6.38;;
35444;SDS011;21562;49.476;6.086;2022-08-18T04:53:01;8.50;;;6.85;;
35444;SDS011;21562;49.476;6.086;2022-08-18T04:55:49;9.45;;;7.00;;
35444;SDS011;21562;49.476;6.086;2022-08-18T04:58:17;9.57;;;6.85;;
35444;SDS011;21562;49.476;6.086;2022-08-18T05:00:43;9.05;;;7.38;;
35444;SDS011;21562;49.476;6.086;2022-08-18T05:03:10;9.07;;;6.75;;
35444;SDS011;21562;49.476;6.086;2022-08-18T05:05:36;8.98;;;6.22;;
35444;SDS011;21562;49.476;6.086;2022-08-18T05:08:02;7.95;;;6.68;;
35444;SDS011;21562;49.476;6.086;2022-08-18T05:10:28;9.10;;;7.70;;
35444;SDS011;21562;49.476;6.086;2022-08-18T05:12:53;8.60;;;6.70;;
35444;SDS011;21562;49.476;6.086;2022-08-18T05:15:19;8.73;;;7.25;;
35444;SDS011;21562;49.476;6.086;2022-08-18T05:17:45;9.52;;;7.63;;
35444;SDS011;21562;49.476;6.086;2022-08-18T05:20:11;8.30;;;6.18;;
35444;SDS011;21562;49.476;6.086;2022-08-18T05:22:38;8.82;;;7.55;;
35444;SDS011;21562;49.476;6.086;2022-08-18T05:25:06;10.35;;;7.90;;
35444;SDS011;21562;49.476;6.086;2022-08-18T05:27:33;11.73;;;8.00;;
35444;SDS011;21562;49.476;6.086;2022-08-18T05:30:01;8.32;;;7.32;;
35444;SDS011;21562;49.476;6.086;2022-08-18T05:32:28;8.98;;;7.25;;
35444;SDS011;21562;49.476;6.086;2022-08-18T05:35:01;11.95;;;7.75;;
35444;SDS011;21562;49.476;6.086;2022-08-18T05:40:24;10.35;;;6.70;;
35444;SDS011;21562;49.476;6.086;2022-08-18T05:42:50;10.65;;;7.07;;
35444;SDS011;21562;49.476;6.086;2022-08-18T05:45:20;10.63;;;5.70;;
35444;SDS011;21562;49.476;6.086;2022-08-18T05:47:46;9.50;;;5.68;;
35444;SDS011;21562;49.476;6.086;2022-08-18T05:50:13;8.68;;;5.70;;
35444;SDS011;21562;49.476;6.086;2022-08-18T05:52:51;9.02;;;7.45;;
35444;SDS011;21562;49.476;6.086;2022-08-18T05:55:28;9.77;;;6.90;;
35444;SDS011;21562;49.476;6.086;2022-08-18T06:00:56;14.20;;;7.10;;
35444;SDS011;21562;49.476;6.086;2022-08-18T06:03:34;9.60;;;6.35;;
35444;SDS011;21562;49.476;6.086;2022-08-18T06:06:07;11.57;;;7.10;;
35444;SDS011;21562;49.476;6.086;2022-08-18T06:08:42;9.32;;;7.00;;
35444;SDS011;21562;49.476;6.086;2022-08-18T06:11:12;10.70;;;7.32;;
35444;SDS011;21562;49.476;6.086;2022-08-18T06:13:39;10.95;;;7.30;;
35444;SDS011;21562;49.476;6.086;2022-08-18T06:16:11;9.25;;;7.18;;
35444;SDS011;21562;49.476;6.086;2022-08-18T06:30:40;9.20;;;6.47;;
35444;SDS011;21562;49.476;6.086;2022-08-18T06:38:08;9.73;;;7.30;;
35444;SDS011;21562;49.476;6.086;2022-08-18T06:41:08;7.63;;;6.53;;
35444;SDS011;21562;49.476;6.086;2022-08-18T06:47:00;12.13;;;6.90;;
35444;SDS011;21562;49.476;6.086;2022-08-18T06:49:33;8.93;;;6.57;;
35444;SDS011;21562;49.476;6.086;2022-08-18T06:52:16;11.80;;;7.78;;
35444;SDS011;21562;49.476;6.086;2022-08-18T06:57:51;12.07;;;8.68;;
35444;SDS011;21562;49.476;6.086;2022-08-18T07:00:26;10.68;;;8.93;;
35444;SDS011;21562;49.476;6.086;2022-08-18T07:03:03;17.15;;;9.07;;
35444;SDS011;21562;49.476;6.086;2022-08-18T07:05:58;11.57;;;8.57;;
35444;SDS011;21562;49.476;6.086;2022-08-18T07:08:32;8.32;;;7.35;;
35444;SDS011;21562;49.476;6.086;2022-08-18T07:11:13;16.00;;;8.63;;
35444;SDS011;21562;49.476;6.086;2022-08-18T07:13:42;10.15;;;7.65;;
35444;SDS011;21562;49.476;6.086;2022-08-18T07:18:53;17.17;;;10.07;;
35444;SDS011;21562;49.476;6.086;2022-08-18T07:21:32;9.55;;;7.43;;
35444;SDS011;21562;49.476;6.086;2022-08-18T07:26:59;11.90;;;9.35;;
35444;SDS011;21562;49.476;6.086;2022-08-18T07:29:57;10.13;;;8.10;;
35444;SDS011;21562;49.476;6.086;2022-08-18T07:32:30;8.65;;;7.45;;
35444;SDS011;21562;49.476;6.086;2022-08-18T07:35:17;8.82;;;7.93;;
35444;SDS011;21562;49.476;6.086;2022-08-18T07:37:59;9.25;;;8.10;;
35444;SDS011;21562;49.476;6.086;2022-08-18T07:40:32;8.82;;;7.55;;
35444;SDS011;21562;49.476;6.086;2022-08-18T07:43:04;13.77;;;10.73;;
35444;SDS011;21562;49.476;6.086;2022-08-18T07:45:45;12.73;;;7.57;;
35444;SDS011;21562;49.476;6.086;2022-08-18T07:48:16;15.38;;;8.00;;
35444;SDS011;21562;49.476;6.086;2022-08-18T07:56:09;12.20;;;8.70;;
35444;SDS011;21562;49.476;6.086;2022-08-18T07:58:49;10.45;;;8.52;;
35444;SDS011;21562;49.476;6.086;2022-08-18T08:09:30;11.98;;;8.32;;
35444;SDS011;21562;49.476;6.086;2022-08-18T08:12:06;9.18;;;7.85;;
35444;SDS011;21562;49.476;6.086;2022-08-18T08:14:40;15.98;;;10.57;;
35444;SDS011;21562;49.476;6.086;2022-08-18T08:17:12;17.80;;;8.77;;
35444;SDS011;21562;49.476;6.086;2022-08-18T08:27:56;17.17;;;11.00;;
35444;SDS011;21562;49.476;6.086;2022-08-18T08:30:48;16.23;;;12.32;;
35444;SDS011;21562;49.476;6.086;2022-08-18T08:34:38;13.10;;;9.38;;
35444;SDS011;21562;49.476;6.086;2022-08-18T08:36:46;10.88;;;8.50;;
35444;SDS011;21562;49.476;6.086;2022-08-18T08:39:17;12.15;;;8.55;;
35444;SDS011;21562;49.476;6.086;2022-08-18T08:41:45;10.90;;;9.00;;
35444;SDS011;21562;49.476;6.086;2022-08-18T08:44:19;18.52;;;13.52;;
35444;SDS011;21562;49.476;6.086;2022-08-18T08:55:14;20.20;;;15.32;;
35444;SDS011;21562;49.476;6.086;2022-08-18T08:58:36;19.90;;;13.73;;
35444;SDS011;21562;49.476;6.086;2022-08-18T09:00:44;15.50;;;12.80;;
35444;SDS011;21562;49.476;6.086;2022-08-18T09:03:29;15.70;;;10.40;;
35444;SDS011;21562;49.476;6.086;2022-08-18T09:20:27;17.33;;;13.77;;
35444;SDS011;21562;49.476;6.086;2022-08-18T09:23:11;17.58;;;12.18;;
35444;SDS011;21562;49.476;6.086;2022-08-18T09:41:57;11.73;;;10.02;;
35444;SDS011;21562;49.476;6.086;2022-08-18T10:10:20;17.55;;;11.23;;
35444;SDS011;21562;49.476;6.086;2022-08-18T10:21:07;13.27;;;9.75;;
35444;SDS011;21562;49.476;6.086;2022-08-18T10:28:57;11.73;;;8.70;;
35444;SDS011;21562;49.476;6.086;2022-08-18T10:31:24;14.98;;;9.75;;
35444;SDS011;21562;49.476;6.086;2022-08-18T10:39:14;11.30;;;8.80;;
35444;SDS011;21562;49.476;6.086;2022-08-18T10:41:59;14.35;;;10.02;;
35444;SDS011;21562;49.476;6.086;2022-08-18T10:44:30;12.48;;;9.90;;
35444;SDS011;21562;49.476;6.086;2022-08-18T10:47:00;13.80;;;10.02;;
35444;SDS011;21562;49.476;6.086;2022-08-18T10:49:27;12.70;;;9.93;;
35444;SDS011;21562;49.476;6.086;2022-08-18T11:00:09;11.52;;;8.95;;
35444;SDS011;21562;49.476;6.086;2022-08-18T11:05:22;15.40;;;10.27;;
35444;SDS011;21562;49.476;6.086;2022-08-18T11:07:54;10.80;;;8.82;;
35444;SDS011;21562;49.476;6.086;2022-08-18T11:10:34;11.57;;;8.60;;
35444;SDS011;21562;49.476;6.086;2022-08-18T11:13:10;11.45;;;9.27;;
35444;SDS011;21562;49.476;6.086;2022-08-18T11:18:43;12.15;;;9.40;;
35444;SDS011;21562;49.476;6.086;2022-08-18T11:24:01;13.27;;;9.20;;
35444;SDS011;21562;49.476;6.086;2022-08-18T11:26:33;16.45;;;10.82;;
35444;SDS011;21562;49.476;6.086;2022-08-18T11:34:18;9.77;;;8.45;;
35444;SDS011;21562;49.476;6.086;2022-08-18T11:37:01;12.27;;;9.02;;
35444;SDS011;21562;49.476;6.086;2022-08-18T11:39:29;11.93;;;8.73;;
35444;SDS011;21562;49.476;6.086;2022-08-18T11:41:56;8.85;;;7.28;;
35444;SDS011;21562;49.476;6.086;2022-08-18T11:44:24;13.50;;;8.50;;
35444;SDS011;21562;49.476;6.086;2022-08-18T11:46:55;11.18;;;7.65;;
35444;SDS011;21562;49.476;6.086;2022-08-18T11:49:53;9.18;;;7.63;;
35444;SDS011;21562;49.476;6.086;2022-08-18T11:54:50;9.85;;;8.07;;
35444;SDS011;21562;49.476;6.086;2022-08-18T12:03:28;9.32;;;8.23;;
35444;SDS011;21562;49.476;6.086;2022-08-18T12:06:09;8.48;;;7.57;;
35444;SDS011;21562;49.476;6.086;2022-08-18T12:08:52;9.50;;;8.02;;
35444;SDS011;21562;49.476;6.086;2022-08-18T12:11:25;8.43;;;6.60;;
35444;SDS011;21562;49.476;6.086;2022-08-18T12:14:01;8.27;;;7.38;;
35444;SDS011;21562;49.476;6.086;2022-08-18T12:19:06;10.30;;;7.20;;
35444;SDS011;21562;49.476;6.086;2022-08-18T12:21:42;8.85;;;7.20;;
35444;SDS011;21562;49.476;6.086;2022-08-18T12:24:16;10.38;;;8.10;;
35444;SDS011;21562;49.476;6.086;2022-08-18T12:26:45;12.98;;;7.63;;
35444;SDS011;21562;49.476;6.086;2022-08-18T12:29:11;9.13;;;7.40;;
35444;SDS011;21562;49.476;6.086;2022-08-18T12:31:37;9.18;;;7.47;;
35444;SDS011;21562;49.476;6.086;2022-08-18T12:34:03;11.68;;;8.27;;
35444;SDS011;21562;49.476;6.086;2022-08-18T12:36:29;8.48;;;7.45;;
35444;SDS011;21562;49.476;6.086;2022-08-18T12:38:55;9.10;;;7.80;;
35444;SDS011;21562;49.476;6.086;2022-08-18T12:41:21;8.82;;;7.75;;
35444;SDS011;21562;49.476;6.086;2022-08-18T12:43:48;9.73;;;7.45;;
35444;SDS011;21562;49.476;6.086;2022-08-18T12:46:14;10.32;;;6.97;;
35444;SDS011;21562;49.476;6.086;2022-08-18T12:48:39;9.10;;;7.72;;
35444;SDS011;21562;49.476;6.086;2022-08-18T12:51:05;9.00;;;7.38;;
35444;SDS011;21562;49.476;6.086;2022-08-18T12:53:32;10.45;;;7.32;;
35444;SDS011;21562;49.476;6.086;2022-08-18T12:55:58;8.00;;;7.18;;
35444;SDS011;21562;49.476;6.086;2022-08-18T12:58:25;9.35;;;7.53;;
35444;SDS011;21562;49.476;6.086;2022-08-18T13:00:52;9.68;;;7.53;;
35444;SDS011;21562;49.476;6.086;2022-08-18T13:03:19;8.45;;;7.07;;
35444;SDS011;21562;49.476;6.086;2022-08-18T13:05:45;11.98;;;7.38;;
35444;SDS011;21562;49.476;6.086;2022-08-18T13:08:18;9.20;;;7.20;;
35444;SDS011;21562;49.476;6.086;2022-08-18T13:10:46;11.05;;;7.40;;
35444;SDS011;21562;49.476;6.086;2022-08-18T13:13:13;8.05;;;6.70;;
35444;SDS011;21562;49.476;6.086;2022-08-18T13:15:40;10.40;;;6.55;;
35444;SDS011;21562;49.476;6.086;2022-08-18T13:18:06;8.60;;;7.43;;
35444;SDS011;21562;49.476;6.086;2022-08-18T13:20:32;12.43;;;7.72;;
35444;SDS011;21562;49.476;6.086;2022-08-18T13:22:58;8.93;;;7.30;;
35444;SDS011;21562;49.476;6.086;2022-08-18T13:25:24;8.10;;;6.70;;
35444;SDS011;21562;49.476;6.086;2022-08-18T13:27:51;8.63;;;6.90;;
35444;SDS011;21562;49.476;6.086;2022-08-18T13:30:17;9.52;;;7.10;;
35444;SDS011;21562;49.476;6.086;2022-08-18T13:32:43;9.75;;;7.43;;
35444;SDS011;21562;49.476;6.086;2022-08-18T13:35:09;12.45;;;7.15;;
35444;SDS011;21562;49.476;6.086;2022-08-18T13:37:35;7.90;;;6.30;;
35444;SDS011;21562;49.476;6.086;2022-08-18T13:40:01;8.98;;;6.78;;
35444;SDS011;21562;49.476;6.086;2022-08-18T13:42:28;8.13;;;6.90;;
35444;SDS011;21562;49.476;6.086;2022-08-18T13:44:54;9.02;;;6.70;;
35444;SDS011;21562;49.476;6.086;2022-08-18T13:47:23;6.78;;;6.05;;
35444;SDS011;21562;49.476;6.086;2022-08-18T13:49:51;9.77;;;6.72;;
35444;SDS011;21562;49.476;6.086;2022-08-18T13:52:17;7.72;;;6.28;;
35444;SDS011;21562;49.476;6.086;2022-08-18T13:54:43;6.60;;;5.85;;
35444;SDS011;21562;49.476;6.086;2022-08-18T13:57:10;9.93;;;7.53;;
35444;SDS011;21562;49.476;6.086;2022-08-18T13:59:35;8.48;;;6.50;;
35444;SDS011;21562;49.476;6.086;2022-08-18T14:02:03;7.22;;;6.45;;
35444;SDS011;21562;49.476;6.086;2022-08-18T14:04:32;7.38;;;6.68;;
35444;SDS011;21562;49.476;6.086;2022-08-18T14:06:58;6.68;;;5.78;;
35444;SDS011;21562;49.476;6.086;2022-08-18T14:09:25;6.95;;;6.25;;
35444;SDS011;21562;49.476;6.086;2022-08-18T14:11:52;8.27;;;6.50;;
35444;SDS011;21562;49.476;6.086;2022-08-18T14:14:17;7.50;;;6.50;;
35444;SDS011;21562;49.476;6.086;2022-08-18T14:16:44;6.57;;;5.97;;
35444;SDS011;21562;49.476;6.086;2022-08-18T14:19:10;7.55;;;6.30;;
35444;SDS011;21562;49.476;6.086;2022-08-18T14:21:55;6.88;;;6.05;;
35444;SDS011;21562;49.476;6.086;2022-08-18T14:24:40;7.03;;;6.10;;
35444;SDS011;21562;49.476;6.086;2022-08-18T14:27:29;7.13;;;6.32;;
35444;SDS011;21562;49.476;6.086;2022-08-18T14:29:59;6.65;;;5.93;;
35444;SDS011;21562;49.476;6.086;2022-08-18T14:32:26;6.65;;;5.90;;
35444;SDS011;21562;49.476;6.086;2022-08-18T14:34:57;7.93;;;6.72;;
35444;SDS011;21562;49.476;6.086;2022-08-18T14:37:24;7.15;;;5.85;;
35444;SDS011;21562;49.476;6.086;2022-08-18T14:39:51;6.22;;;5.50;;
35444;SDS011;21562;49.476;6.086;2022-08-18T14:42:17;6.55;;;5.82;;
35444;SDS011;21562;49.476;6.086;2022-08-18T14:44:45;7.53;;;5.78;;
35444;SDS011;21562;49.476;6.086;2022-08-18T14:47:11;10.23;;;6.00;;
35444;SDS011;21562;49.476;6.086;2022-08-18T14:49:37;6.70;;;5.78;;
35444;SDS011;21562;49.476;6.086;2022-08-18T14:52:06;6.72;;;5.95;;
35444;SDS011;21562;49.476;6.086;2022-08-18T14:54:35;8.63;;;5.93;;
35444;SDS011;21562;49.476;6.086;2022-08-18T14:57:01;7.97;;;6.03;;
35444;SDS011;21562;49.476;6.086;2022-08-18T14:59:28;7.15;;;5.60;;
35444;SDS011;21562;49.476;6.086;2022-08-18T15:01:55;5.85;;;5.22;;
35444;SDS011;21562;49.476;6.086;2022-08-18T15:04:21;6.22;;;5.63;;
35444;SDS011;21562;49.476;6.086;2022-08-18T15:06:47;9.43;;;5.57;;
35444;SDS011;21562;49.476;6.086;2022-08-18T15:09:14;6.80;;;6.15;;
35444;SDS011;21562;49.476;6.086;2022-08-18T15:11:40;6.75;;;6.05;;
35444;SDS011;21562;49.476;6.086;2022-08-18T15:14:05;7.22;;;5.05;;
35444;SDS011;21562;49.476;6.086;2022-08-18T15:16:31;9.07;;;5.45;;
35444;SDS011;21562;49.476;6.086;2022-08-18T15:18:59;10.40;;;6.57;;
35444;SDS011;21562;49.476;6.086;2022-08-18T15:21:26;6.38;;;5.55;;
35444;SDS011;21562;49.476;6.086;2022-08-18T15:24:11;6.60;;;6.00;;
35444;SDS011;21562;49.476;6.086;2022-08-18T15:26:55;6.38;;;5.55;;
35444;SDS011;21562;49.476;6.086;2022-08-18T15:29:22;6.93;;;5.47;;
35444;SDS011;21562;49.476;6.086;2022-08-18T15:31:48;7.10;;;6.18;;
35444;SDS011;21562;49.476;6.086;2022-08-18T15:34:14;8.18;;;6.10;;
35444;SDS011;21562;49.476;6.086;2022-08-18T15:36:40;6.32;;;5.72;;
35444;SDS011;21562;49.476;6.086;2022-08-18T15:39:06;7.40;;;5.80;;
35444;SDS011;21562;49.476;6.086;2022-08-18T15:41:34;7.13;;;5.72;;
35444;SDS011;21562;49.476;6.086;2022-08-18T15:44:03;6.05;;;5.45;;
35444;SDS011;21562;49.476;6.086;2022-08-18T15:46:31;6.22;;;5.63;;
35444;SDS011;21562;49.476;6.086;2022-08-18T15:48:59;6.22;;;5.63;;
35444;SDS011;21562;49.476;6.086;2022-08-18T15:51:25;10.25;;;5.60;;
35444;SDS011;21562;49.476;6.086;2022-08-18T15:53:51;6.88;;;5.53;;
35444;SDS011;21562;49.476;6.086;2022-08-18T15:56:21;6.28;;;5.32;;
35444;SDS011;21562;49.476;6.086;2022-08-18T15:58:48;6.82;;;6.13;;
35444;SDS011;21562;49.476;6.086;2022-08-18T16:01:16;7.45;;;5.78;;
35444;SDS011;21562;49.476;6.086;2022-08-18T16:03:44;7.20;;;5.80;;
35444;SDS011;21562;49.476;6.086;2022-08-18T16:06:14;7.30;;;5.75;;
35444;SDS011;21562;49.476;6.086;2022-08-18T16:08:42;8.38;;;5.57;;
35444;SDS011;21562;49.476;6.086;2022-08-18T16:11:09;6.57;;;5.88;;
35444;SDS011;21562;49.476;6.086;2022-08-18T16:13:36;6.10;;;5.50;;
35444;SDS011;21562;49.476;6.086;2022-08-18T16:16:12;5.80;;;5.10;;
35444;SDS011;21562;49.476;6.086;2022-08-18T16:18:47;6.07;;;5.13;;
35444;SDS011;21562;49.476;6.086;2022-08-18T16:21:16;6.63;;;5.75;;
35444;SDS011;21562;49.476;6.086;2022-08-18T16:23:44;7.72;;;5.43;;
35444;SDS011;21562;49.476;6.086;2022-08-18T16:26:12;9.57;;;6.70;;
35444;SDS011;21562;49.476;6.086;2022-08-18T16:28:42;10.35;;;6.50;;
35444;SDS011;21562;49.476;6.086;2022-08-18T16:31:10;8.93;;;5.75;;
35444;SDS011;21562;49.476;6.086;2022-08-18T16:33:39;7.30;;;6.10;;
35444;SDS011;21562;49.476;6.086;2022-08-18T16:36:06;6.18;;;5.53;;
35444;SDS011;21562;49.476;6.086;2022-08-18T16:38:34;6.28;;;5.68;;
35444;SDS011;21562;49.476;6.086;2022-08-18T16:41:08;6.70;;;5.68;;
35444;SDS011;21562;49.476;6.086;2022-08-18T16:43:37;9.32;;;5.97;;
35444;SDS011;21562;49.476;6.086;2022-08-18T16:46:05;6.18;;;5.57;;
35444;SDS011;21562;49.476;6.086;2022-08-18T16:48:34;6.43;;;5.82;;
35444;SDS011;21562;49.476;6.086;2022-08-18T16:51:00;8.05;;;6.90;;
35444;SDS011;21562;49.476;6.086;2022-08-18T16:53:26;8.40;;;7.28;;
35444;SDS011;21562;49.476;6.086;2022-08-18T16:55:51;6.88;;;6.05;;
35444;SDS011;21562;49.476;6.086;2022-08-18T16:58:17;6.40;;;5.78;;
35444;SDS011;21562;49.476;6.086;2022-08-18T17:03:45;6.00;;;5.35;;
35444;SDS011;21562;49.476;6.086;2022-08-18T17:06:29;9.82;;;8.10;;
35444;SDS011;21562;49.476;6.086;2022-08-18T17:08:55;7.70;;;6.55;;
35444;SDS011;21562;49.476;6.086;2022-08-18T17:11:22;9.00;;;6.50;;
35444;SDS011;21562;49.476;6.086;2022-08-18T17:13:51;6.93;;;5.53;;
35444;SDS011;21562;49.476;6.086;2022-08-18T17:16:18;8.35;;;6.05;;
35444;SDS011;21562;49.476;6.086;2022-08-18T17:18:45;8.60;;;6.07;;
35444;SDS011;21562;49.476;6.086;2022-08-18T17:21:12;7.05;;;6.22;;
35444;SDS011;21562;49.476;6.086;2022-08-18T17:23:39;8.48;;;6.43;;
35444;SDS011;21562;49.476;6.086;2022-08-18T17:26:06;7.90;;;6.38;;
35444;SDS011;21562;49.476;6.086;2022-08-18T17:28:41;6.60;;;5.90;;
35444;SDS011;21562;49.476;6.086;2022-08-18T17:31:08;9.60;;;6.95;;
35444;SDS011;21562;49.476;6.086;2022-08-18T17:33:36;6.47;;;5.72;;
35444;SDS011;21562;49.476;6.086;2022-08-18T17:36:17;6.38;;;5.78;;
35444;SDS011;21562;49.476;6.086;2022-08-18T17:38:56;9.02;;;6.93;;
35444;SDS011;21562;49.476;6.086;2022-08-18T17:41:24;8.98;;;6.80;;
35444;SDS011;21562;49.476;6.086;2022-08-18T17:43:51;10.50;;;7.70;;
35444;SDS011;21562;49.476;6.086;2022-08-18T17:46:26;12.82;;;7.57;;
35444;SDS011;21562;49.476;6.086;2022-08-18T17:48:55;11.10;;;7.72;;
35444;SDS011;21562;49.476;6.086;2022-08-18T17:54:17;11.05;;;7.65;;
35444;SDS011;21562;49.476;6.086;2022-08-18T17:57:11;9.27;;;7.00;;
35444;SDS011;21562;49.476;6.086;2022-08-18T17:59:46;8.88;;;7.22;;
35444;SDS011;21562;49.476;6.086;2022-08-18T18:02:26;10.25;;;7.38;;
35444;SDS011;21562;49.476;6.086;2022-08-18T18:04:55;9.05;;;8.15;;